createdAt,value
2018-06-11T00:00:41.101Z,979.93
2018-06-11T00:01:41.049Z,979.91
2018-06-11T00:02:40.996Z,979.90
2018-06-11T00:03:40.979Z,979.87
2018-06-11T00:04:40.894Z,979.85
2018-06-11T00:05:40.841Z,979.86
2018-06-11T00:06:40.793Z,979.84
2018-06-11T00:07:40.739Z,979.84
2018-06-11T00:08:40.690Z,979.87
2018-06-11T00:09:40.634Z,979.88
2018-06-11T00:10:40.582Z,979.82
2018-06-11T00:11:40.534Z,979.84
2018-06-11T00:12:40.481Z,979.77
2018-06-11T00:13:40.431Z,979.79
2018-06-11T00:14:40.375Z,979.76
2018-06-11T00:15:40.324Z,979.76
2018-06-11T00:16:40.278Z,979.79
2018-06-11T00:17:40.219Z,979.71
2018-06-11T00:18:40.169Z,979.72
2018-06-11T00:19:40.117Z,979.70
2018-06-11T00:20:40.066Z,979.69
2018-06-11T00:21:40.012Z,979.70
2018-06-11T00:22:39.962Z,979.69
2018-06-11T00:23:39.911Z,979.65
2018-06-11T00:24:39.902Z,979.70
2018-06-11T00:25:39.806Z,979.70
2018-06-11T00:26:39.757Z,979.73
2018-06-11T00:27:39.704Z,979.66
2018-06-11T00:28:39.650Z,979.67
2018-06-11T00:29:39.604Z,979.65
2018-06-11T00:30:39.576Z,979.60
2018-06-11T00:31:39.496Z,979.57
2018-06-11T00:32:39.443Z,979.58
2018-06-11T00:33:39.391Z,979.54
2018-06-11T00:34:39.339Z,979.49
2018-06-11T00:35:39.289Z,979.49
2018-06-11T00:36:39.235Z,979.50
2018-06-11T00:37:39.185Z,979.49
2018-06-11T00:38:39.134Z,979.49
2018-06-11T00:39:39.081Z,979.47
2018-06-11T00:40:39.028Z,979.50
2018-06-11T00:41:38.979Z,979.50
2018-06-11T00:42:38.924Z,979.48
2018-06-11T00:43:38.876Z,979.50
2018-06-11T00:44:38.819Z,979.51
2018-06-11T00:45:38.766Z,979.51
2018-06-11T00:46:38.717Z,979.49
2018-06-11T00:47:38.663Z,979.52
2018-06-11T00:48:38.613Z,979.51
2018-06-11T00:49:38.561Z,979.54
2018-06-11T00:50:38.510Z,979.49
2018-06-11T00:51:38.455Z,979.48
2018-06-11T00:52:38.402Z,979.46
2018-06-11T00:53:38.350Z,979.43
2018-06-11T00:54:38.302Z,979.41
2018-06-11T00:55:38.246Z,979.38
2018-06-11T00:56:38.198Z,979.38
2018-06-11T00:57:38.144Z,979.33
2018-06-11T00:58:38.091Z,979.32
2018-06-11T00:59:38.038Z,979.33
2018-06-11T01:00:37.990Z,979.29
2018-06-11T01:01:37.935Z,979.27
2018-06-11T01:02:37.885Z,979.31
2018-06-11T01:03:37.831Z,979.28
2018-06-11T01:04:37.779Z,979.26
2018-06-11T01:05:37.726Z,979.26
2018-06-11T01:06:37.676Z,979.23
2018-06-11T01:07:37.623Z,979.21
2018-06-11T01:08:37.572Z,979.21
2018-06-11T01:09:37.520Z,979.17
2018-06-11T01:10:37.467Z,979.19
2018-06-11T01:11:37.415Z,979.12
2018-06-11T01:12:37.366Z,979.15
2018-06-11T01:13:37.308Z,979.16
2018-06-11T01:14:37.257Z,979.14
2018-06-11T01:15:37.205Z,979.16
2018-06-11T01:16:37.155Z,979.16
2018-06-11T01:17:37.100Z,979.12
2018-06-11T01:18:37.055Z,979.14
2018-06-11T01:19:36.996Z,979.14
2018-06-11T01:20:36.943Z,979.12
2018-06-11T01:21:36.889Z,979.15
2018-06-11T01:22:36.837Z,979.19
2018-06-11T01:23:36.784Z,979.20
2018-06-11T01:24:36.733Z,979.19
2018-06-11T01:25:36.678Z,979.22
2018-06-11T01:26:36.632Z,979.24
2018-06-11T01:27:36.574Z,979.20
2018-06-11T01:28:36.522Z,979.18
2018-06-11T01:29:36.470Z,979.18
2018-06-11T01:30:36.417Z,979.16
2018-06-11T01:31:36.370Z,979.12
2018-06-11T01:32:36.316Z,979.11
2018-06-11T01:33:36.259Z,979.04
2018-06-11T01:34:36.210Z,978.97
2018-06-11T01:35:36.160Z,978.98
2018-06-11T01:36:36.104Z,978.92
2018-06-11T01:37:36.050Z,978.92
2018-06-11T01:38:35.998Z,978.81
2018-06-11T01:39:35.945Z,978.84
2018-06-11T01:40:35.892Z,978.87
2018-06-11T01:41:35.839Z,978.83
2018-06-11T01:42:35.789Z,978.89
2018-06-11T01:43:35.738Z,978.85
2018-06-11T01:44:35.681Z,978.83
2018-06-11T01:45:35.629Z,978.77
2018-06-11T01:46:35.580Z,978.76
2018-06-11T01:47:35.527Z,978.83
2018-06-11T01:48:35.471Z,978.79
2018-06-11T01:49:35.420Z,978.75
2018-06-11T01:50:35.368Z,978.74
2018-06-11T01:51:35.317Z,978.74
2018-06-11T01:52:35.262Z,978.73
2018-06-11T01:53:35.211Z,978.72
2018-06-11T01:54:35.159Z,978.69
2018-06-11T01:55:35.104Z,978.70
2018-06-11T01:56:35.053Z,978.73
2018-06-11T01:57:34.999Z,978.70
2018-06-11T01:58:34.947Z,978.72
2018-06-11T01:59:34.931Z,978.69
2018-06-11T02:00:34.841Z,978.71
2018-06-11T02:01:34.788Z,978.69
2018-06-11T02:02:34.738Z,978.70
2018-06-11T02:03:34.685Z,978.66
2018-06-11T02:04:34.634Z,978.69
2018-06-11T02:05:34.579Z,978.62
2018-06-11T02:06:34.529Z,978.64
2018-06-11T02:07:34.474Z,978.63
2018-06-11T02:08:34.420Z,978.61
2018-06-11T02:09:34.370Z,978.60
2018-06-11T02:10:34.318Z,978.61
2018-06-11T02:11:35.156Z,978.64
2018-06-11T02:12:34.211Z,978.65
2018-06-11T02:13:34.160Z,978.65
2018-06-11T02:14:34.109Z,978.67
2018-06-11T02:15:34.056Z,978.70
2018-06-11T02:16:34.000Z,978.67
2018-06-11T02:17:33.949Z,978.68
2018-06-11T02:18:33.936Z,978.65
2018-06-11T02:19:33.847Z,978.70
2018-06-11T02:20:33.799Z,978.74
2018-06-11T02:21:33.738Z,978.76
2018-06-11T02:22:33.685Z,978.74
2018-06-11T02:23:33.643Z,978.75
2018-06-11T02:24:33.580Z,978.78
2018-06-11T02:25:33.527Z,978.79
2018-06-11T02:26:33.487Z,978.80
2018-06-11T02:27:33.422Z,978.81
2018-06-11T02:28:33.367Z,978.80
2018-06-11T02:29:33.316Z,978.81
2018-06-11T02:30:33.267Z,978.80
2018-06-11T02:31:33.209Z,978.82
2018-06-11T02:32:33.162Z,978.87
2018-06-11T02:33:33.104Z,978.88
2018-06-11T02:34:33.050Z,978.88
2018-06-11T02:35:32.998Z,978.90
2018-06-11T02:36:32.949Z,978.94
2018-06-11T02:37:32.891Z,978.92
2018-06-11T02:38:32.842Z,978.92
2018-06-11T02:39:32.786Z,978.89
2018-06-11T02:40:32.732Z,978.95
2018-06-11T02:41:32.680Z,978.94
2018-06-11T02:42:32.627Z,978.92
2018-06-11T02:43:32.573Z,978.92
2018-06-11T02:44:32.521Z,978.92
2018-06-11T02:45:32.471Z,978.91
2018-06-11T02:46:32.416Z,978.88
2018-06-11T02:47:32.396Z,978.89
2018-06-11T02:48:32.308Z,978.89
2018-06-11T02:49:32.255Z,978.90
2018-06-11T02:50:32.210Z,978.91
2018-06-11T02:51:32.156Z,978.91
2018-06-11T02:52:32.097Z,978.94
2018-06-11T02:53:32.050Z,978.95
2018-06-11T02:54:31.991Z,978.94
2018-06-11T02:55:31.938Z,978.97
2018-06-11T02:56:31.884Z,978.98
2018-06-11T02:57:31.834Z,978.94
2018-06-11T02:58:31.784Z,978.95
2018-06-11T02:59:31.734Z,978.95
2018-06-11T03:00:31.676Z,978.97
2018-06-11T03:01:31.621Z,978.95
2018-06-11T03:02:31.567Z,978.96
2018-06-11T03:03:31.517Z,979.00
2018-06-11T03:04:31.467Z,978.93
2018-06-11T03:05:31.498Z,979.00
2018-06-11T03:06:31.357Z,979.00
2018-06-11T03:07:31.311Z,979.01
2018-06-11T03:08:31.249Z,979.03
2018-06-11T03:09:31.196Z,979.01
2018-06-11T03:10:31.144Z,979.01
2018-06-11T03:11:31.093Z,979.01
2018-06-11T03:12:31.038Z,978.94
2018-06-11T03:13:30.991Z,978.93
2018-06-11T03:14:30.934Z,978.92
2018-06-11T03:15:30.882Z,978.88
2018-06-11T03:16:30.827Z,978.88
2018-06-11T03:17:30.778Z,978.88
2018-06-11T03:18:30.721Z,978.90
2018-06-11T03:19:30.669Z,978.87
2018-06-11T03:20:30.614Z,978.86
2018-06-11T03:21:30.563Z,978.84
2018-06-11T03:22:30.509Z,978.83
2018-06-11T03:23:30.462Z,978.81
2018-06-11T03:24:30.402Z,978.88
2018-06-11T03:25:30.351Z,978.86
2018-06-11T03:26:30.296Z,978.86
2018-06-11T03:27:30.249Z,978.85
2018-06-11T03:28:30.192Z,978.86
2018-06-11T03:29:30.139Z,978.87
2018-06-11T03:30:30.088Z,978.83
2018-06-11T03:31:30.039Z,978.81
2018-06-11T03:32:29.980Z,978.81
2018-06-11T03:33:29.928Z,978.79
2018-06-11T03:34:29.876Z,978.79
2018-06-11T03:35:29.823Z,978.81
2018-06-11T03:36:29.767Z,978.78
2018-06-11T03:37:29.716Z,978.78
2018-06-11T03:38:29.661Z,978.75
2018-06-11T03:39:29.611Z,978.73
2018-06-11T03:40:29.555Z,978.72
2018-06-11T03:41:29.502Z,978.72
2018-06-11T03:42:29.449Z,978.75
2018-06-11T03:43:29.397Z,978.80
2018-06-11T03:44:29.342Z,978.79
2018-06-11T03:45:29.289Z,978.78
2018-06-11T03:46:29.236Z,978.83
2018-06-11T03:47:29.184Z,978.82
2018-06-11T03:48:29.137Z,978.83
2018-06-11T03:49:29.078Z,978.85
2018-06-11T03:50:29.025Z,978.87
2018-06-11T03:51:28.972Z,978.90
2018-06-11T03:52:28.918Z,978.94
2018-06-11T03:53:28.864Z,978.93
2018-06-11T03:54:28.810Z,978.99
2018-06-11T03:55:28.760Z,978.97
2018-06-11T03:56:28.704Z,978.92
2018-06-11T03:57:28.654Z,978.92
2018-06-11T03:58:28.597Z,978.92
2018-06-11T03:59:28.550Z,978.92
2018-06-11T04:00:28.493Z,978.86
2018-06-11T04:01:28.439Z,978.88
2018-06-11T04:02:28.387Z,978.92
2018-06-11T04:03:28.336Z,978.86
2018-06-11T04:04:28.277Z,978.89
2018-06-11T04:05:28.233Z,978.89
2018-06-11T04:06:28.173Z,978.85
2018-06-11T04:07:28.122Z,978.88
2018-06-11T04:08:28.068Z,978.82
2018-06-11T04:09:28.014Z,978.85
2018-06-11T04:10:27.961Z,978.85
2018-06-11T04:11:27.907Z,978.82
2018-06-11T04:12:27.855Z,978.79
2018-06-11T04:13:27.802Z,978.80
2018-06-11T04:14:27.750Z,978.79
2018-06-11T04:15:27.697Z,978.81
2018-06-11T04:16:27.644Z,978.82
2018-06-11T04:17:27.590Z,978.80
2018-06-11T04:18:27.536Z,978.80
2018-06-11T04:19:27.508Z,978.80
2018-06-11T04:20:27.431Z,978.78
2018-06-11T04:21:27.383Z,978.76
2018-06-11T04:22:27.326Z,978.79
2018-06-11T04:23:27.271Z,978.81
2018-06-11T04:24:27.221Z,978.80
2018-06-11T04:25:27.165Z,978.75
2018-06-11T04:26:27.114Z,978.77
2018-06-11T04:27:27.062Z,978.79
2018-06-11T04:28:27.008Z,978.76
2018-06-11T04:29:26.957Z,978.77
2018-06-11T04:30:26.903Z,978.77
2018-06-11T04:31:26.852Z,978.79
2018-06-11T04:32:26.798Z,978.76
2018-06-11T04:33:26.751Z,978.77
2018-06-11T04:34:26.692Z,978.80
2018-06-11T04:35:26.640Z,978.79
2018-06-11T04:36:26.590Z,978.82
2018-06-11T04:37:26.538Z,978.82
2018-06-11T04:38:26.483Z,978.82
2018-06-11T04:39:47.421Z,978.83
2018-06-11T04:40:26.375Z,978.81
2018-06-11T04:41:26.323Z,978.82
2018-06-11T04:42:26.273Z,978.82
2018-06-11T04:43:26.220Z,978.80
2018-06-11T04:44:26.166Z,978.81
2018-06-11T04:45:26.115Z,978.79
2018-06-11T04:46:26.062Z,978.78
2018-06-11T04:47:26.010Z,978.78
2018-06-11T04:48:25.956Z,978.80
2018-06-11T04:49:25.909Z,978.76
2018-06-11T04:50:25.857Z,978.79
2018-06-11T04:51:25.805Z,978.77
2018-06-11T04:52:25.753Z,978.74
2018-06-11T04:53:25.695Z,978.78
2018-06-11T04:54:25.645Z,978.71
2018-06-11T04:55:25.594Z,978.75
2018-06-11T04:56:25.543Z,978.72
2018-06-11T04:57:25.490Z,978.71
2018-06-11T04:58:25.435Z,978.66
2018-06-11T04:59:25.384Z,978.68
2018-06-11T05:00:25.330Z,978.67
2018-06-11T05:01:25.278Z,978.64
2018-06-11T05:02:25.226Z,978.63
2018-06-11T05:03:25.184Z,978.66
2018-06-11T05:04:25.123Z,978.63
2018-06-11T05:05:25.071Z,978.61
2018-06-11T05:06:25.018Z,978.60
2018-06-11T05:07:24.971Z,978.56
2018-06-11T05:08:24.914Z,978.55
2018-06-11T05:09:24.862Z,978.52
2018-06-11T05:10:24.812Z,978.47
2018-06-11T05:11:24.758Z,978.53
2018-06-11T05:12:24.706Z,978.48
2018-06-11T05:13:24.653Z,978.49
2018-06-11T05:14:24.606Z,978.50
2018-06-11T05:15:24.551Z,978.49
2018-06-11T05:16:24.504Z,978.46
2018-06-11T05:17:24.445Z,978.45
2018-06-11T05:18:24.394Z,978.44
2018-06-11T05:19:24.344Z,978.46
2018-06-11T05:20:24.291Z,978.40
2018-06-11T05:21:24.240Z,978.38
2018-06-11T05:22:24.190Z,978.35
2018-06-11T05:23:24.149Z,978.38
2018-06-11T05:24:24.083Z,978.40
2018-06-11T05:25:24.031Z,978.36
2018-06-11T05:26:23.979Z,978.32
2018-06-11T05:27:23.928Z,978.31
2018-06-11T05:28:23.875Z,978.30
2018-06-11T05:29:23.823Z,978.31
2018-06-11T05:30:23.773Z,978.30
2018-06-11T05:31:23.727Z,978.31
2018-06-11T05:32:23.672Z,978.30
2018-06-11T05:33:23.644Z,978.33
2018-06-11T05:34:23.567Z,978.28
2018-06-11T05:35:23.513Z,978.28
2018-06-11T05:36:23.462Z,978.29
2018-06-11T05:37:23.411Z,978.31
2018-06-11T05:38:23.360Z,978.29
2018-06-11T05:39:23.306Z,978.31
2018-06-11T05:40:23.310Z,978.38
2018-06-11T05:41:23.203Z,978.31
2018-06-11T05:42:23.269Z,978.35
2018-06-11T05:43:23.101Z,978.34
2018-06-11T05:44:23.048Z,978.32
2018-06-11T05:45:22.995Z,978.34
2018-06-11T05:46:22.944Z,978.31
2018-06-11T05:47:22.893Z,978.34
2018-06-11T05:48:22.842Z,978.34
2018-06-11T05:49:22.790Z,978.30
2018-06-11T05:50:22.743Z,978.32
2018-06-11T05:51:22.691Z,978.28
2018-06-11T05:52:22.638Z,978.30
2018-06-11T05:53:22.619Z,978.33
2018-06-11T05:54:22.533Z,978.40
2018-06-11T05:55:22.480Z,978.36
2018-06-11T05:56:22.429Z,978.37
2018-06-11T05:57:22.377Z,978.41
2018-06-11T05:58:22.326Z,978.38
2018-06-11T05:59:22.275Z,978.40
2018-06-11T06:00:22.223Z,978.40
2018-06-11T06:01:22.173Z,978.44
2018-06-11T06:02:22.125Z,978.45
2018-06-11T06:03:22.073Z,978.46
2018-06-11T06:04:22.018Z,978.45
2018-06-11T06:05:21.969Z,978.43
2018-06-11T06:06:21.917Z,978.47
2018-06-11T06:07:21.868Z,978.49
2018-06-11T06:08:21.815Z,978.46
2018-06-11T06:09:21.764Z,978.50
2018-06-11T06:10:21.713Z,978.52
2018-06-11T06:11:21.665Z,978.56
2018-06-11T06:12:21.612Z,978.55
2018-06-11T06:13:21.561Z,978.60
2018-06-11T06:14:21.511Z,978.58
2018-06-11T06:15:21.552Z,978.54
2018-06-11T06:16:21.409Z,978.55
2018-06-11T06:17:21.358Z,978.59
2018-06-11T06:18:21.309Z,978.55
2018-06-11T06:19:21.258Z,978.54
2018-06-11T06:20:21.206Z,978.55
2018-06-11T06:21:21.158Z,978.58
2018-06-11T06:22:21.107Z,978.59
2018-06-11T06:23:21.056Z,978.57
2018-06-11T06:24:21.003Z,978.60
2018-06-11T06:25:20.952Z,978.62
2018-06-11T06:26:20.907Z,978.62
2018-06-11T06:27:20.853Z,978.61
2018-06-11T06:28:20.801Z,978.58
2018-06-11T06:29:20.751Z,978.58
2018-06-11T06:30:20.701Z,978.53
2018-06-11T06:31:20.656Z,978.54
2018-06-11T06:32:20.601Z,978.55
2018-06-11T06:33:20.591Z,978.52
2018-06-11T06:34:20.567Z,978.56
2018-06-11T06:35:20.458Z,978.55
2018-06-11T06:36:20.401Z,978.56
2018-06-11T06:37:20.349Z,978.57
2018-06-11T06:38:20.302Z,978.60
2018-06-11T06:39:20.251Z,978.58
2018-06-11T06:40:20.201Z,978.62
2018-06-11T06:41:20.152Z,978.61
2018-06-11T06:42:20.102Z,978.63
2018-06-11T06:43:20.051Z,978.64
2018-06-11T06:44:20.001Z,978.64
2018-06-11T06:45:19.952Z,978.61
2018-06-11T06:46:19.902Z,978.64
2018-06-11T06:47:19.851Z,978.68
2018-06-11T06:48:19.805Z,978.67
2018-06-11T06:49:19.753Z,978.64
2018-06-11T06:50:19.702Z,978.64
2018-06-11T06:51:19.657Z,978.65
2018-06-11T06:52:19.602Z,978.68
2018-06-11T06:53:19.555Z,978.71
2018-06-11T06:54:19.506Z,978.68
2018-06-11T06:55:19.457Z,978.68
2018-06-11T06:56:19.407Z,978.64
2018-06-11T06:57:19.356Z,978.61
2018-06-11T06:58:19.308Z,978.61
2018-06-11T06:59:19.260Z,978.61
2018-06-11T07:00:19.209Z,978.60
2018-06-11T07:01:19.160Z,978.60
2018-06-11T07:02:19.109Z,978.60
2018-06-11T07:03:19.067Z,978.54
2018-06-11T07:04:19.012Z,978.55
2018-06-11T07:05:18.964Z,978.52
2018-06-11T07:06:18.920Z,978.55
2018-06-11T07:07:18.878Z,978.54
2018-06-11T07:08:18.820Z,978.51
2018-06-11T07:09:18.768Z,978.60
2018-06-11T07:10:18.720Z,978.58
2018-06-11T07:11:18.669Z,978.62
2018-06-11T07:12:18.620Z,978.64
2018-06-11T07:13:18.572Z,978.66
2018-06-11T07:14:18.527Z,978.70
2018-06-11T07:15:18.474Z,978.76
2018-06-11T07:16:18.424Z,978.77
2018-06-11T07:17:18.377Z,978.75
2018-06-11T07:18:18.330Z,978.75
2018-06-11T07:19:18.278Z,978.74
2018-06-11T07:20:18.274Z,978.71
2018-06-11T07:21:18.179Z,978.67
2018-06-11T07:22:18.131Z,978.69
2018-06-11T07:23:18.081Z,978.67
2018-06-11T07:24:18.035Z,978.66
2018-06-11T07:25:17.984Z,978.65
2018-06-11T07:26:17.936Z,978.62
2018-06-11T07:27:17.886Z,978.62
2018-06-11T07:28:17.836Z,978.54
2018-06-11T07:29:17.795Z,978.59
2018-06-11T07:30:17.742Z,978.53
2018-06-11T07:31:17.753Z,978.56
2018-06-11T07:32:17.645Z,978.49
2018-06-11T07:33:17.599Z,978.48
2018-06-11T07:34:17.552Z,978.46
2018-06-11T07:35:17.503Z,978.45
2018-06-11T07:36:17.453Z,978.45
2018-06-11T07:37:17.401Z,978.49
2018-06-11T07:38:17.354Z,978.45
2018-06-11T07:39:17.305Z,978.46
2018-06-11T07:40:17.257Z,978.50
2018-06-11T07:41:17.209Z,978.48
2018-06-11T07:42:17.165Z,978.44
2018-06-11T07:43:17.116Z,978.47
2018-06-11T07:44:17.153Z,978.46
2018-06-11T07:45:17.015Z,978.41
2018-06-11T07:46:16.968Z,978.41
2018-06-11T07:47:16.920Z,978.40
2018-06-11T07:48:18.738Z,978.39
2018-06-11T07:49:16.824Z,978.41
2018-06-11T07:50:16.775Z,978.37
2018-06-11T07:51:16.729Z,978.38
2018-06-11T07:52:16.681Z,978.32
2018-06-11T07:53:16.631Z,978.36
2018-06-11T07:54:16.587Z,978.31
2018-06-11T07:55:16.537Z,978.29
2018-06-11T07:56:16.489Z,978.30
2018-06-11T07:57:16.439Z,978.30
2018-06-11T07:58:16.392Z,978.29
2018-06-11T07:59:16.346Z,978.29
2018-06-11T08:00:16.304Z,978.24
2018-06-11T08:01:16.257Z,978.27
2018-06-11T08:02:16.201Z,978.26
2018-06-11T08:03:16.153Z,978.21
2018-06-11T08:04:16.102Z,978.21
2018-06-11T08:05:16.053Z,978.20
2018-06-11T08:06:16.007Z,978.16
2018-06-11T08:07:15.960Z,978.20
2018-06-11T08:08:15.925Z,978.21
2018-06-11T08:09:15.860Z,978.15
2018-06-11T08:10:15.820Z,978.17
2018-06-11T08:11:15.777Z,978.18
2018-06-11T08:12:15.718Z,978.18
2018-06-11T08:13:15.670Z,978.16
2018-06-11T08:14:15.622Z,978.15
2018-06-11T08:15:15.574Z,978.12
2018-06-11T08:16:15.530Z,978.09
2018-06-11T08:17:15.490Z,978.06
2018-06-11T08:18:15.429Z,978.05
2018-06-11T08:19:15.380Z,978.06
2018-06-11T08:20:15.336Z,978.04
2018-06-11T08:21:15.296Z,978.06
2018-06-11T08:22:15.251Z,978.06
2018-06-11T08:23:15.190Z,978.05
2018-06-11T08:24:15.140Z,978.01
2018-06-11T08:25:15.096Z,977.99
2018-06-11T08:26:15.045Z,977.95
2018-06-11T08:27:15.004Z,977.98
2018-06-11T08:28:14.948Z,978.02
2018-06-11T08:29:14.914Z,978.05
2018-06-11T08:30:14.852Z,978.03
2018-06-11T08:31:14.805Z,978.07
2018-06-11T08:32:14.758Z,978.08
2018-06-11T08:33:14.710Z,978.11
2018-06-11T08:34:14.665Z,978.07
2018-06-11T08:35:14.614Z,978.07
2018-06-11T08:36:14.566Z,978.09
2018-06-11T08:37:14.518Z,978.12
2018-06-11T08:38:14.470Z,978.13
2018-06-11T08:39:14.423Z,978.15
2018-06-11T08:40:14.385Z,978.16
2018-06-11T08:41:14.339Z,978.14
2018-06-11T08:42:14.283Z,978.10
2018-06-11T08:43:14.245Z,978.10
2018-06-11T08:44:14.191Z,978.12
2018-06-11T08:45:14.138Z,978.08
2018-06-11T08:46:14.088Z,978.09
2018-06-11T08:47:14.039Z,978.12
2018-06-11T08:48:13.993Z,978.11
2018-06-11T08:49:13.947Z,978.11
2018-06-11T08:50:13.901Z,978.12
2018-06-11T08:51:13.859Z,978.07
2018-06-11T08:52:13.804Z,978.06
2018-06-11T08:53:13.769Z,978.08
2018-06-11T08:54:13.710Z,978.10
2018-06-11T08:55:13.666Z,978.07
2018-06-11T08:56:13.622Z,978.10
2018-06-11T08:57:13.563Z,978.06
2018-06-11T08:58:13.527Z,978.07
2018-06-11T08:59:13.471Z,978.08
2018-06-11T09:00:13.420Z,978.09
2018-06-11T09:01:13.374Z,978.13
2018-06-11T09:02:13.326Z,978.07
2018-06-11T09:03:13.283Z,978.09
2018-06-11T09:04:13.229Z,978.06
2018-06-11T09:05:13.194Z,978.05
2018-06-11T09:06:13.136Z,978.07
2018-06-11T09:07:13.089Z,978.11
2018-06-11T09:08:13.041Z,978.04
2018-06-11T09:09:13.001Z,978.07
2018-06-11T09:10:12.946Z,978.09
2018-06-11T09:11:12.917Z,978.08
2018-06-11T09:12:12.851Z,978.05
2018-06-11T09:13:12.806Z,978.07
2018-06-11T09:14:12.861Z,977.98
2018-06-11T09:15:12.710Z,978.01
2018-06-11T09:16:12.704Z,977.99
2018-06-11T09:17:12.618Z,978.00
2018-06-11T09:18:12.671Z,978.05
2018-06-11T09:19:12.522Z,978.02
2018-06-11T09:20:12.483Z,977.97
2018-06-11T09:21:12.429Z,978.05
2018-06-11T09:22:12.382Z,978.00
2018-06-11T09:23:12.338Z,977.99
2018-06-11T09:24:12.289Z,978.01
2018-06-11T09:25:12.244Z,977.98
2018-06-11T09:26:12.195Z,977.95
2018-06-11T09:27:12.154Z,977.98
2018-06-11T09:28:12.102Z,977.97
2018-06-11T09:29:12.057Z,978.01
2018-06-11T09:30:12.012Z,978.04
2018-06-11T09:31:11.966Z,978.05
2018-06-11T09:32:11.920Z,978.04
2018-06-11T09:33:11.871Z,978.01
2018-06-11T09:34:11.826Z,978.00
2018-06-11T09:35:11.787Z,977.98
2018-06-11T09:36:11.735Z,977.97
2018-06-11T09:37:11.688Z,977.93
2018-06-11T09:38:11.654Z,977.95
2018-06-11T09:39:11.596Z,977.93
2018-06-11T09:40:11.554Z,977.94
2018-06-11T09:41:11.504Z,977.92
2018-06-11T09:42:11.457Z,977.91
2018-06-11T09:43:11.411Z,977.89
2018-06-11T09:44:11.417Z,977.86
2018-06-11T09:45:11.322Z,977.85
2018-06-11T09:46:11.278Z,977.86
2018-06-11T09:47:11.229Z,977.82
2018-06-11T09:48:11.183Z,977.82
2018-06-11T09:49:11.160Z,977.82
2018-06-11T09:50:11.092Z,977.82
2018-06-11T09:51:11.047Z,977.85
2018-06-11T09:52:11.024Z,977.88
2018-06-11T09:53:10.954Z,977.89
2018-06-11T09:54:10.913Z,977.86
2018-06-11T09:55:10.864Z,977.86
2018-06-11T09:56:10.819Z,977.85
2018-06-11T09:57:10.773Z,977.80
2018-06-11T09:58:10.725Z,977.76
2018-06-11T09:59:10.681Z,977.80
2018-06-11T10:00:10.636Z,977.80
2018-06-11T10:01:10.591Z,977.76
2018-06-11T10:02:10.544Z,977.70
2018-06-11T10:03:10.499Z,977.76
2018-06-11T10:04:10.453Z,977.75
2018-06-11T10:05:10.408Z,977.74
2018-06-11T10:06:10.360Z,977.76
2018-06-11T10:07:10.316Z,977.77
2018-06-11T10:08:10.270Z,977.80
2018-06-11T10:09:10.250Z,977.79
2018-06-11T10:10:10.180Z,977.80
2018-06-11T10:11:10.138Z,977.85
2018-06-11T10:12:10.090Z,977.81
2018-06-11T10:13:10.044Z,977.84
2018-06-11T10:14:09.996Z,977.82
2018-06-11T10:15:09.952Z,977.79
2018-06-11T10:16:09.903Z,977.77
2018-06-11T10:17:09.860Z,977.80
2018-06-11T10:18:09.812Z,977.84
2018-06-11T10:19:09.770Z,977.83
2018-06-11T10:20:09.722Z,977.78
2018-06-11T10:21:09.674Z,977.77
2018-06-11T10:22:09.630Z,977.78
2018-06-11T10:23:09.584Z,977.73
2018-06-11T10:24:09.537Z,977.68
2018-06-11T10:25:09.493Z,977.63
2018-06-11T10:26:09.444Z,977.62
2018-06-11T10:27:09.402Z,977.64
2018-06-11T10:28:09.355Z,977.65
2018-06-11T10:29:09.308Z,977.58
2018-06-11T10:30:09.262Z,977.61
2018-06-11T10:31:09.217Z,977.57
2018-06-11T10:32:09.173Z,977.58
2018-06-11T10:33:09.123Z,977.57
2018-06-11T10:34:09.079Z,977.55
2018-06-11T10:35:09.033Z,977.55
2018-06-11T10:36:08.988Z,977.52
2018-06-11T10:37:08.941Z,977.57
2018-06-11T10:38:08.895Z,977.56
2018-06-11T10:39:08.870Z,977.54
2018-06-11T10:40:08.804Z,977.51
2018-06-11T10:41:08.759Z,977.45
2018-06-11T10:42:08.711Z,977.41
2018-06-11T10:43:08.669Z,977.39
2018-06-11T10:44:08.621Z,977.39
2018-06-11T10:45:08.575Z,977.37
2018-06-11T10:46:08.531Z,977.33
2018-06-11T10:47:08.485Z,977.30
2018-06-11T10:48:08.440Z,977.26
2018-06-11T10:49:08.395Z,977.25
2018-06-11T10:50:08.349Z,977.18
2018-06-11T10:51:08.314Z,977.20
2018-06-11T10:52:08.261Z,977.13
2018-06-11T10:53:08.216Z,977.13
2018-06-11T10:54:08.170Z,977.15
2018-06-11T10:55:08.124Z,977.09
2018-06-11T10:56:08.079Z,977.10
2018-06-11T10:57:08.035Z,977.14
2018-06-11T10:58:07.999Z,977.12
2018-06-11T10:59:07.943Z,977.11
2018-06-11T11:00:07.898Z,977.06
2018-06-11T11:01:07.853Z,977.07
2018-06-11T11:02:07.808Z,977.03
2018-06-11T11:03:07.764Z,976.96
2018-06-11T11:04:07.718Z,976.96
2018-06-11T11:05:07.674Z,976.88
2018-06-11T11:06:07.632Z,976.85
2018-06-11T11:07:07.587Z,976.79
2018-06-11T11:08:07.541Z,976.79
2018-06-11T11:09:07.496Z,976.76
2018-06-11T11:10:08.290Z,976.81
2018-06-11T11:11:07.413Z,976.73
2018-06-11T11:12:07.363Z,976.73
2018-06-11T11:13:07.329Z,976.73
2018-06-11T11:14:07.272Z,976.74
2018-06-11T11:15:07.228Z,976.68
2018-06-11T11:16:07.183Z,976.64
2018-06-11T11:17:07.141Z,976.66
2018-06-11T11:18:07.096Z,976.61
2018-06-11T11:19:07.050Z,976.69
2018-06-11T11:20:07.004Z,976.70
2018-06-11T11:21:06.962Z,976.69
2018-06-11T11:22:06.915Z,976.74
2018-06-11T11:23:06.870Z,976.75
2018-06-11T11:24:06.826Z,976.76
2018-06-11T11:25:06.783Z,976.76
2018-06-11T11:26:06.738Z,976.79
2018-06-11T11:27:06.693Z,976.82
2018-06-11T11:28:06.649Z,976.83
2018-06-11T11:29:06.604Z,976.82
2018-06-11T11:30:06.558Z,976.78
2018-06-11T11:31:06.516Z,976.73
2018-06-11T11:32:06.471Z,976.73
2018-06-11T11:33:06.426Z,976.74
2018-06-11T11:34:06.383Z,976.70
2018-06-11T11:35:06.340Z,976.72
2018-06-11T11:36:06.293Z,976.64
2018-06-11T11:37:06.247Z,976.71
2018-06-11T11:38:06.208Z,976.72
2018-06-11T11:39:06.158Z,976.69
2018-06-11T11:40:06.114Z,976.69
2018-06-11T11:41:06.069Z,976.73
2018-06-11T11:42:06.026Z,976.70
2018-06-11T11:43:05.983Z,976.68
2018-06-11T11:44:05.935Z,976.69
2018-06-11T11:45:05.893Z,976.64
2018-06-11T11:46:05.845Z,976.62
2018-06-11T11:47:05.803Z,976.59
2018-06-11T11:48:05.755Z,976.58
2018-06-11T11:49:05.712Z,976.61
2018-06-11T11:50:05.666Z,976.63
2018-06-11T11:51:05.659Z,976.64
2018-06-11T11:52:05.579Z,976.73
2018-06-11T11:53:05.535Z,976.76
2018-06-11T11:54:05.487Z,976.78
2018-06-11T11:55:05.442Z,976.75
2018-06-11T11:56:05.400Z,976.79
2018-06-11T11:57:05.352Z,976.77
2018-06-11T11:58:05.307Z,976.74
2018-06-11T11:59:05.263Z,976.72
2018-06-11T12:00:05.217Z,976.72
2018-06-11T12:01:05.172Z,976.69
2018-06-11T12:02:05.127Z,976.72
2018-06-11T12:03:05.093Z,976.74
2018-06-11T12:04:05.037Z,976.79
2018-06-11T12:05:04.992Z,976.75
2018-06-11T12:06:04.949Z,976.71
2018-06-11T12:07:04.904Z,976.68
2018-06-11T12:08:04.859Z,976.66
2018-06-11T12:09:04.814Z,976.64
2018-06-11T12:10:04.776Z,976.56
2018-06-11T12:11:04.724Z,976.56
2018-06-11T12:12:04.685Z,976.51
2018-06-11T12:13:04.635Z,976.47
2018-06-11T12:14:04.599Z,976.44
2018-06-11T12:15:04.545Z,976.44
2018-06-11T12:16:04.500Z,976.42
2018-06-11T12:17:04.457Z,976.33
2018-06-11T12:18:04.412Z,976.32
2018-06-11T12:19:04.428Z,976.28
2018-06-11T12:20:04.324Z,976.27
2018-06-11T12:21:04.280Z,976.24
2018-06-11T12:22:04.235Z,976.26
2018-06-11T12:23:04.198Z,976.27
2018-06-11T12:24:04.150Z,976.19
2018-06-11T12:25:04.139Z,976.22
2018-06-11T12:26:04.054Z,976.18
2018-06-11T12:27:04.014Z,976.14
2018-06-11T12:28:03.981Z,976.11